createdAt,value
2023-11-08T00:02:25.419Z,6.09
2023-11-08T00:04:52.264Z,6.10
2023-11-08T00:07:19.602Z,6.03
2023-11-08T00:09:46.505Z,5.99
2023-11-08T00:12:15.792Z,5.98
2023-11-08T00:14:44.033Z,5.99
2023-11-08T00:17:10.836Z,6.02
2023-11-08T00:19:37.612Z,6.07
2023-11-08T00:22:04.459Z,6.05
2023-11-08T00:24:31.245Z,6.13
2023-11-08T00:26:58.056Z,6.13
2023-11-08T00:29:24.839Z,6.14
2023-11-08T00:31:52.251Z,6.12
2023-11-08T00:34:21.216Z,6.13
2023-11-08T00:36:50.177Z,6.21
2023-11-08T00:39:19.808Z,6.12
2023-11-08T00:41:47.062Z,6.01
2023-11-08T00:44:14.338Z,6.17
2023-11-08T00:46:41.376Z,6.11
2023-11-08T00:49:08.316Z,6.22
2023-11-08T00:51:35.137Z,6.25
2023-11-08T00:54:02.071Z,6.15
2023-11-08T00:56:29.051Z,6.24
2023-11-08T00:58:56.090Z,6.18
2023-11-08T01:01:24.043Z,6.08
2023-11-08T01:03:52.008Z,6.08
2023-11-08T01:06:18.993Z,6.08
2023-11-08T01:08:45.840Z,6.14
2023-11-08T01:11:12.778Z,6.06
2023-11-08T01:13:39.482Z,5.95
2023-11-08T01:16:09.458Z,5.79
2023-11-08T01:18:36.515Z,5.77
2023-11-08T01:21:03.909Z,5.68
2023-11-08T01:23:30.950Z,5.62
2023-11-08T01:25:57.784Z,5.58
2023-11-08T01:28:25.216Z,5.51
2023-11-08T01:30:52.484Z,5.54
2023-11-08T01:33:19.470Z,5.52
2023-11-08T01:35:46.359Z,5.44
2023-11-08T01:38:13.853Z,5.28
2023-11-08T01:40:44.416Z,4.99
2023-11-08T01:43:30.524Z,4.71
2023-11-08T01:46:07.967Z,4.58
2023-11-08T01:48:36.839Z,4.54
2023-11-08T01:51:04.996Z,4.56
2023-11-08T01:53:33.254Z,4.49
2023-11-08T01:56:00.244Z,4.52
2023-11-08T01:58:27.077Z,4.53
2023-11-08T02:00:55.703Z,4.58
2023-11-08T02:03:24.753Z,4.63
2023-11-08T02:05:52.169Z,4.64
2023-11-08T02:08:19.007Z,4.65
2023-11-08T02:10:46.151Z,4.68
2023-11-08T02:13:13.620Z,4.65
2023-11-08T02:15:44.242Z,4.67
2023-11-08T02:18:12.151Z,4.68
2023-11-08T02:20:39.207Z,4.69
2023-11-08T02:23:06.103Z,4.69
2023-11-08T02:25:32.958Z,4.68
2023-11-08T02:28:00.068Z,4.73
2023-11-08T02:30:27.119Z,4.71
2023-11-08T02:32:54.384Z,4.77
2023-11-08T02:35:21.850Z,4.83
2023-11-08T02:37:49.726Z,4.84
2023-11-08T02:40:17.201Z,4.88
2023-11-08T02:42:45.520Z,4.91
2023-11-08T02:45:13.146Z,4.86
2023-11-08T02:47:40.601Z,4.82
2023-11-08T02:50:08.780Z,4.81
2023-11-08T02:52:35.777Z,4.82
2023-11-08T02:55:03.058Z,4.84
2023-11-08T02:57:29.900Z,4.86
2023-11-08T02:59:56.905Z,4.92
2023-11-08T03:02:23.884Z,4.87
2023-11-08T03:04:50.747Z,4.86
2023-11-08T03:07:17.514Z,4.91
2023-11-08T03:09:44.526Z,4.92
2023-11-08T03:12:11.310Z,4.92
2023-11-08T03:14:38.157Z,4.99
2023-11-08T03:17:04.971Z,4.96
2023-11-08T03:19:32.362Z,4.95
2023-11-08T03:22:01.527Z,4.99
2023-11-08T03:24:28.288Z,4.99
2023-11-08T03:26:55.107Z,4.99
2023-11-08T03:29:21.971Z,4.99
2023-11-08T03:31:48.739Z,5.04
2023-11-08T03:34:15.740Z,5.00
2023-11-08T03:36:44.106Z,5.02
2023-11-08T03:39:11.361Z,5.00
2023-11-08T03:41:38.264Z,5.02
2023-11-08T03:44:06.920Z,5.03
2023-11-08T03:46:33.768Z,5.02
2023-11-08T03:49:00.666Z,5.05
2023-11-08T03:51:28.652Z,5.05
2023-11-08T03:53:56.064Z,5.10
2023-11-08T03:56:23.129Z,5.09
2023-11-08T03:58:55.812Z,5.13
2023-11-08T04:01:22.710Z,5.17
2023-11-08T04:03:49.733Z,5.20
2023-11-08T04:06:16.649Z,5.19
2023-11-08T04:08:43.397Z,5.23
2023-11-08T04:11:10.165Z,5.25
2023-11-08T04:13:36.918Z,5.25
2023-11-08T04:16:04.680Z,5.27
2023-11-08T04:18:32.045Z,5.29
2023-11-08T04:20:58.885Z,5.31
2023-11-08T04:23:25.734Z,5.33
2023-11-08T04:25:52.602Z,5.35
2023-11-08T04:28:19.386Z,5.31
2023-11-08T04:30:47.128Z,5.36
2023-11-08T04:33:13.953Z,5.39
2023-11-08T04:35:40.926Z,5.42
2023-11-08T04:38:08.494Z,5.44
2023-11-08T04:40:35.341Z,5.46
2023-11-08T04:43:02.121Z,5.44
2023-11-08T04:45:28.897Z,5.40
2023-11-08T04:47:55.995Z,5.42
2023-11-08T04:50:23.011Z,5.39
2023-11-08T04:52:49.852Z,5.40
2023-11-08T04:55:16.692Z,5.42
2023-11-08T04:57:43.529Z,5.45
2023-11-08T05:00:11.821Z,5.44
2023-11-08T05:02:39.569Z,5.44
2023-11-08T05:05:07.162Z,5.44
2023-11-08T05:07:34.041Z,5.46
2023-11-08T05:10:00.969Z,5.44
2023-11-08T05:12:27.873Z,5.47
2023-11-08T05:14:56.027Z,5.50
2023-11-08T05:17:22.868Z,5.48
2023-11-08T05:19:49.648Z,5.48
2023-11-08T05:22:16.566Z,5.46
2023-11-08T05:24:45.130Z,5.47
2023-11-08T05:27:17.298Z,5.46
2023-11-08T05:29:44.524Z,5.49
2023-11-08T05:32:11.286Z,5.50
2023-11-08T05:34:38.860Z,5.49
2023-11-08T05:37:05.983Z,5.52
2023-11-08T05:39:33.009Z,5.53
2023-11-08T05:41:59.854Z,5.54
2023-11-08T05:44:26.629Z,5.56
2023-11-08T05:46:53.427Z,5.56
2023-11-08T05:49:20.678Z,5.60
2023-11-08T05:51:47.514Z,5.62
2023-11-08T05:54:14.632Z,5.62
2023-11-08T05:56:42.979Z,5.60
2023-11-08T05:59:09.728Z,5.59
2023-11-08T06:01:45.678Z,5.58
2023-11-08T06:04:14.167Z,5.60
2023-11-08T06:06:47.269Z,5.64
2023-11-08T06:12:14.784Z,5.70
2023-11-08T08:38:44.857Z,6.85
2023-11-08T08:41:12.749Z,6.90
2023-11-08T08:43:41.043Z,6.90
2023-11-08T08:49:26.739Z,6.97
2023-11-08T08:51:54.374Z,6.97
2023-11-08T08:54:31.092Z,7.01
2023-11-08T08:56:59.694Z,7.00
2023-11-08T08:59:31.475Z,6.96
2023-11-08T09:01:58.396Z,7.03
2023-11-08T09:04:25.801Z,7.06
2023-11-08T09:06:53.891Z,7.03
2023-11-08T09:09:20.846Z,7.06
2023-11-08T09:11:47.641Z,7.04
2023-11-08T09:14:16.666Z,7.14
2023-11-08T09:16:43.518Z,7.17
2023-11-08T09:19:11.478Z,7.18
2023-11-08T09:21:43.479Z,7.17
2023-11-08T09:24:11.055Z,7.17
2023-11-08T09:26:38.048Z,7.15
2023-11-08T09:29:05.744Z,7.19
2023-11-08T09:31:34.295Z,7.23
2023-11-08T09:34:06.068Z,7.23
2023-11-08T09:36:33.200Z,7.27
2023-11-08T09:39:01.644Z,7.25
2023-11-08T09:41:29.190Z,7.24
2023-11-08T09:43:56.223Z,7.25
2023-11-08T09:46:23.564Z,7.29
2023-11-08T09:48:51.198Z,7.32
2023-11-08T09:51:21.178Z,7.39
2023-11-08T09:53:47.956Z,7.45
2023-11-08T09:56:14.988Z,7.55
2023-11-08T09:58:49.294Z,7.61
2023-11-08T10:01:17.606Z,7.65
2023-11-08T10:03:45.761Z,7.63
2023-11-08T10:06:12.987Z,7.67
2023-11-08T10:08:40.006Z,7.68
2023-11-08T10:11:07.814Z,7.70
2023-11-08T10:13:50.929Z,7.75
2023-11-08T10:16:18.718Z,7.80
2023-11-08T10:19:36.249Z,7.83
2023-11-08T10:21:49.936Z,7.85
2023-11-08T10:24:17.695Z,7.90
2023-11-08T10:26:44.868Z,7.98
2023-11-08T10:29:14.956Z,8.00
2023-11-08T10:31:43.325Z,8.03
2023-11-08T10:34:22.251Z,8.05
2023-11-08T10:36:49.412Z,8.07
2023-11-08T10:39:19.113Z,8.17
2023-11-08T10:41:50.269Z,8.24
2023-11-08T10:44:24.152Z,8.34
2023-11-08T10:46:59.383Z,8.42
2023-11-08T10:49:26.982Z,8.48
2023-11-08T10:51:59.735Z,8.59
2023-11-08T10:54:26.655Z,8.75
2023-11-08T10:56:56.044Z,8.79
2023-11-08T10:59:23.477Z,8.84
2023-11-08T11:01:50.395Z,9.05
2023-11-08T11:04:17.535Z,9.09
2023-11-08T11:06:44.755Z,9.54
2023-11-08T11:09:12.384Z,9.32
2023-11-08T11:11:44.879Z,9.07
2023-11-08T11:14:57.734Z,8.97
2023-11-08T11:17:30.507Z,8.95
2023-11-08T11:20:03.722Z,8.82
2023-11-08T11:22:30.413Z,8.81
2023-11-08T11:24:58.610Z,8.91
2023-11-08T11:27:34.835Z,8.94
2023-11-08T11:30:24.914Z,8.97
2023-11-08T11:32:54.398Z,8.94
2023-11-08T11:35:44.557Z,8.92
2023-11-08T11:38:12.356Z,8.90
2023-11-08T11:40:44.146Z,8.94
2023-11-08T11:43:39.524Z,8.89
2023-11-08T11:46:07.392Z,8.87
2023-11-08T11:48:35.023Z,8.82
2023-11-08T11:51:03.272Z,8.81
2023-11-08T11:53:31.078Z,8.84
2023-11-08T11:56:10.796Z,8.81
2023-11-08T11:58:38.012Z,8.94
2023-11-08T12:01:07.394Z,9.00
2023-11-08T12:03:35.156Z,9.05
2023-11-08T12:06:02.261Z,9.10
2023-11-08T12:08:29.529Z,9.18
2023-11-08T12:11:33.667Z,9.13
2023-11-08T12:14:00.411Z,9.14
2023-11-08T12:16:27.249Z,9.13
2023-11-08T12:18:54.054Z,9.13
2023-11-08T12:21:21.036Z,9.09
2023-11-08T12:23:49.016Z,9.08
2023-11-08T12:26:15.774Z,9.04
2023-11-08T12:28:45.086Z,9.01
2023-11-08T12:31:12.827Z,9.01
2023-11-08T12:33:39.972Z,9.00
2023-11-08T12:36:10.874Z,9.00
2023-11-08T12:38:40.822Z,9.00
2023-11-08T12:41:09.275Z,9.08
2023-11-08T12:43:58.798Z,9.05
2023-11-08T12:46:37.670Z,9.10
2023-11-08T12:49:15.880Z,9.18
2023-11-08T12:51:44.245Z,9.19
2023-11-08T12:54:12.537Z,9.24
2023-11-08T12:56:40.814Z,9.48
2023-11-08T12:59:25.899Z,9.74
2023-11-08T13:02:12.102Z,9.75
2023-11-08T13:04:42.558Z,9.67
2023-11-08T13:07:10.111Z,9.57
2023-11-08T13:09:37.438Z,9.94
2023-11-08T13:12:05.039Z,9.97
2023-11-08T13:14:31.925Z,9.93
2023-11-08T13:16:58.826Z,10.10
2023-11-08T13:19:25.758Z,10.66
2023-11-08T13:21:53.335Z,10.45
2023-11-08T13:24:20.634Z,10.42
2023-11-08T13:26:47.855Z,10.35
2023-11-08T13:29:14.784Z,10.67
2023-11-08T13:31:41.827Z,10.93
2023-11-08T13:34:08.866Z,10.86
2023-11-08T13:36:36.424Z,11.14
2023-11-08T13:39:05.578Z,11.18
2023-11-08T13:41:32.669Z,10.90
2023-11-08T13:43:59.969Z,10.66
2023-11-08T13:46:27.167Z,10.51
2023-11-08T13:48:54.784Z,10.44
2023-11-08T13:51:22.117Z,10.47
2023-11-08T13:53:49.073Z,10.32
2023-11-08T13:56:15.873Z,10.66
2023-11-08T13:58:42.926Z,10.56
2023-11-08T14:01:17.522Z,10.44
2023-11-08T14:03:44.799Z,10.47
2023-11-08T14:06:15.221Z,10.44
2023-11-08T14:08:42.339Z,10.49
2023-11-08T14:11:09.535Z,10.44
2023-11-08T14:13:36.618Z,10.73
2023-11-08T14:16:04.100Z,10.82
2023-11-08T14:18:30.943Z,10.62
2023-11-08T14:20:58.138Z,10.65
2023-11-08T14:23:25.011Z,10.53
2023-11-08T14:25:52.570Z,11.01
2023-11-08T14:28:20.302Z,10.99
2023-11-08T14:30:48.100Z,10.82
2023-11-08T14:33:17.032Z,10.56
2023-11-08T14:35:44.012Z,10.34
2023-11-08T14:38:12.381Z,10.37
2023-11-08T14:40:39.690Z,10.76
2023-11-08T14:43:06.632Z,11.01
2023-11-08T14:45:33.510Z,11.11
2023-11-08T14:48:00.487Z,11.03
2023-11-08T14:50:27.392Z,10.90
2023-11-08T14:52:55.267Z,11.09
2023-11-08T14:55:22.159Z,10.94
2023-11-08T14:57:49.123Z,10.86
2023-11-08T15:00:17.039Z,10.68
2023-11-08T15:02:43.988Z,10.67
2023-11-08T15:05:10.858Z,10.58
2023-11-08T15:09:42.807Z,10.30
2023-11-08T15:10:25.990Z,10.26
2023-11-08T15:12:56.196Z,10.18
2023-11-08T15:15:23.885Z,10.01
2023-11-08T15:17:50.742Z,10.00
2023-11-08T15:20:18.659Z,9.97
2023-11-08T15:22:45.768Z,9.90
2023-11-08T15:25:13.378Z,9.84
2023-11-08T15:27:40.350Z,9.57
2023-11-08T15:30:10.005Z,9.57
2023-11-08T15:32:40.237Z,9.51
2023-11-08T15:35:08.178Z,9.42
2023-11-08T15:37:35.173Z,9.32
2023-11-08T15:40:02.953Z,9.17
2023-11-08T15:42:30.257Z,9.17
2023-11-08T15:44:57.560Z,9.11
2023-11-08T15:47:24.340Z,9.03
2023-11-08T15:49:51.085Z,8.96
2023-11-08T15:52:18.777Z,8.85
2023-11-08T15:54:46.283Z,8.74
2023-11-08T15:57:13.652Z,8.76
2023-11-08T15:59:40.418Z,8.72
2023-11-08T16:02:09.854Z,8.64
2023-11-08T16:04:37.181Z,8.50
2023-11-08T16:07:04.749Z,8.59
2023-11-08T16:09:32.711Z,8.44
2023-11-08T16:12:00.389Z,8.36
2023-11-08T16:14:27.295Z,8.37
2023-11-08T16:16:54.262Z,8.35
2023-11-08T16:19:21.159Z,8.32
2023-11-08T16:21:50.115Z,8.31
2023-11-08T16:24:18.107Z,8.26
2023-11-08T16:26:45.187Z,8.16
2023-11-08T16:29:49.140Z,8.16
2023-11-08T16:32:33.359Z,8.06
2023-11-08T16:34:49.386Z,8.10
2023-11-08T16:37:17.084Z,8.10
2023-11-08T16:39:45.391Z,7.99
2023-11-08T16:42:12.535Z,8.01
2023-11-08T16:44:40.042Z,7.90
2023-11-08T16:47:07.055Z,7.87
2023-11-08T16:49:34.359Z,7.86
2023-11-08T16:52:01.572Z,7.77
2023-11-08T16:54:28.706Z,7.72
2023-11-08T16:56:55.773Z,7.62
2023-11-08T16:59:22.751Z,7.58
2023-11-08T17:01:49.719Z,7.51
2023-11-08T17:04:17.155Z,7.45
2023-11-08T17:06:49.992Z,7.44
2023-11-08T17:09:19.143Z,7.35
2023-11-08T17:11:45.945Z,7.11
2023-11-08T17:14:12.790Z,7.18
2023-11-08T17:16:39.816Z,7.10
2023-11-08T17:19:06.648Z,7.11
2023-11-08T17:21:34.149Z,6.92
2023-11-08T17:24:02.800Z,7.03
2023-11-08T17:26:29.587Z,6.95
2023-11-08T17:28:56.996Z,6.75
2023-11-08T17:31:23.817Z,6.68
2023-11-08T17:33:50.714Z,6.75
2023-11-08T17:36:17.566Z,6.67
2023-11-08T17:38:46.529Z,6.54
2023-11-08T17:41:13.879Z,6.55
2023-11-08T17:43:42.211Z,6.40
2023-11-08T17:46:10.226Z,6.42
2023-11-08T17:48:37.990Z,6.39
2023-11-08T17:51:06.107Z,6.36
2023-11-08T17:53:34.450Z,6.46
2023-11-08T17:56:01.619Z,6.37
2023-11-08T17:58:28.530Z,6.37
2023-11-08T18:00:56.550Z,6.41
2023-11-08T18:03:23.668Z,6.42
2023-11-08T18:05:51.274Z,6.37
2023-11-08T18:08:18.116Z,6.31
2023-11-08T18:10:44.824Z,6.28
2023-11-08T18:13:11.593Z,6.25
2023-11-08T18:15:39.465Z,6.19
2023-11-08T18:18:07.266Z,6.22
2023-11-08T18:20:34.250Z,6.11
2023-11-08T18:23:01.103Z,6.13
2023-11-08T18:25:27.856Z,6.19
2023-11-08T18:27:54.609Z,6.15
2023-11-08T18:30:25.480Z,6.18
2023-11-08T18:32:52.438Z,6.15
2023-11-08T18:35:19.335Z,6.13
2023-11-08T18:37:47.646Z,6.15
2023-11-08T18:40:14.734Z,6.05
2023-11-08T18:42:41.740Z,6.08
2023-11-08T18:45:10.083Z,6.03
2023-11-08T18:47:37.186Z,5.99
2023-11-08T18:50:07.595Z,5.97
2023-11-08T18:52:34.682Z,5.95
2023-11-08T18:55:02.310Z,5.88
2023-11-08T18:57:29.444Z,5.85
2023-11-08T18:59:56.725Z,5.84
2023-11-08T19:02:25.255Z,5.79
2023-11-08T19:04:52.130Z,5.69
2023-11-08T19:07:20.618Z,5.73
2023-11-08T19:09:47.633Z,5.72
2023-11-08T19:12:14.502Z,5.67
2023-11-08T19:14:41.664Z,5.63
2023-11-08T19:17:08.503Z,5.57
2023-11-08T19:19:35.404Z,5.59
2023-11-08T19:22:02.379Z,5.55
2023-11-08T19:24:29.307Z,5.53
2023-11-08T19:26:56.062Z,5.52
2023-11-08T19:29:22.810Z,5.51
2023-11-08T19:31:51.139Z,5.51
2023-11-08T19:34:18.383Z,5.56
2023-11-08T19:36:49.505Z,5.56
2023-11-08T19:39:17.148Z,5.46
2023-11-08T19:41:44.609Z,5.43
2023-11-08T19:44:11.418Z,5.43
2023-11-08T19:46:38.194Z,5.35
2023-11-08T19:49:06.453Z,5.36
2023-11-08T19:51:35.191Z,5.34
2023-11-08T19:54:02.178Z,5.36
2023-11-08T19:56:29.140Z,5.40
2023-11-08T19:58:55.861Z,5.29
2023-11-08T20:01:23.389Z,5.35
2023-11-08T20:03:51.726Z,5.23
2023-11-08T20:06:18.632Z,5.11
2023-11-08T20:08:46.963Z,5.02
2023-11-08T20:11:15.146Z,5.00
2023-11-08T20:13:43.169Z,4.97
2023-11-08T20:16:11.208Z,4.84
2023-11-08T20:18:38.302Z,4.40
2023-11-08T20:21:10.605Z,4.72
2023-11-08T20:23:38.258Z,4.70
2023-11-08T20:26:05.138Z,4.90
2023-11-08T20:28:32.217Z,4.72
2023-11-08T20:31:02.953Z,4.66
2023-11-08T20:33:31.164Z,4.71
2023-11-08T20:36:01.246Z,4.72
2023-11-08T20:38:29.449Z,4.74
2023-11-08T20:40:56.548Z,4.53
2023-11-08T20:43:23.874Z,4.69
2023-11-08T20:45:50.945Z,4.68
2023-11-08T20:48:17.785Z,4.56
2023-11-08T20:50:44.618Z,4.53
2023-11-08T20:53:11.821Z,4.51
2023-11-08T20:55:39.283Z,4.41
2023-11-08T20:58:07.066Z,4.48
2023-11-08T21:00:34.019Z,4.58
2023-11-08T21:03:01.927Z,4.51
2023-11-08T21:05:28.768Z,4.48
2023-11-08T21:07:55.938Z,4.36
2023-11-08T21:10:23.000Z,4.33
2023-11-08T21:12:49.939Z,4.22
2023-11-08T21:15:16.769Z,4.32
2023-11-08T21:17:43.579Z,4.05
2023-11-08T21:20:10.809Z,3.94
2023-11-08T21:22:38.172Z,4.16
2023-11-08T21:25:06.279Z,4.09
2023-11-08T21:27:33.101Z,4.12
2023-11-08T21:30:00.324Z,3.94
2023-11-08T21:32:27.266Z,3.95
2023-11-08T21:34:57.857Z,3.90
2023-11-08T21:37:25.529Z,3.96
2023-11-08T21:39:53.585Z,3.88
2023-11-08T21:42:20.495Z,3.98
2023-11-08T21:44:47.236Z,3.91
2023-11-08T21:47:15.669Z,3.91
2023-11-08T21:49:42.455Z,3.91
2023-11-08T21:52:09.320Z,3.83
2023-11-08T21:54:38.788Z,3.96
2023-11-08T21:57:10.977Z,3.94
2023-11-08T21:59:38.295Z,3.91
2023-11-08T22:02:08.135Z,4.06
2023-11-08T22:04:35.768Z,3.82
2023-11-08T22:07:03.169Z,3.75
2023-11-08T22:09:30.186Z,3.70
2023-11-08T22:11:57.257Z,3.69
2023-11-08T22:14:24.157Z,3.67
2023-11-08T22:16:50.950Z,3.81
2023-11-08T22:19:17.779Z,3.70
2023-11-08T22:21:44.661Z,3.63
2023-11-08T22:24:11.728Z,3.64
2023-11-08T22:26:38.570Z,3.54
2023-11-08T22:29:06.225Z,3.58
2023-11-08T22:31:33.551Z,3.63
2023-11-08T22:34:00.358Z,3.52
2023-11-08T22:36:27.595Z,3.44
2023-11-08T22:38:54.613Z,3.30
2023-11-08T22:41:21.756Z,3.47
2023-11-08T22:43:48.590Z,3.66
2023-11-08T22:46:22.865Z,3.58
2023-11-08T22:48:49.868Z,3.60
2023-11-08T22:51:23.382Z,3.54
2023-11-08T22:53:50.935Z,3.69
2023-11-08T22:56:18.414Z,3.70
2023-11-08T22:58:46.034Z,3.71
2023-11-08T23:01:12.839Z,3.63
2023-11-08T23:03:40.193Z,3.69
2023-11-08T23:06:07.434Z,3.71
2023-11-08T23:08:34.183Z,3.76
2023-11-08T23:11:00.958Z,3.78
2023-11-08T23:13:27.776Z,3.71
2023-11-08T23:15:54.513Z,3.79
2023-11-08T23:18:21.321Z,3.77
2023-11-08T23:20:48.488Z,3.84
2023-11-08T23:23:15.245Z,3.85
2023-11-08T23:25:42.322Z,3.82
2023-11-08T23:28:09.875Z,3.83
2023-11-08T23:30:36.788Z,3.86
2023-11-08T23:33:03.735Z,3.90
2023-11-08T23:35:30.655Z,3.88
2023-11-08T23:37:57.729Z,3.91
2023-11-08T23:40:24.620Z,3.94
2023-11-08T23:42:51.593Z,3.84
2023-11-08T23:45:18.494Z,3.91
2023-11-08T23:47:45.372Z,3.90
2023-11-08T23:50:13.508Z,3.88
2023-11-08T23:52:40.293Z,3.86
2023-11-08T23:55:07.542Z,3.83
2023-11-08T23:57:34.689Z,3.89
